createdAt,value
2023-04-04T00:00:47.896Z,0.00
2023-04-04T00:01:47.936Z,0.00
2023-04-04T00:02:48.892Z,0.00
2023-04-04T00:03:47.955Z,0.00
2023-04-04T00:04:47.927Z,0.00
2023-04-04T00:05:47.831Z,0.00
2023-04-04T00:06:47.819Z,0.00
2023-04-04T00:07:47.792Z,0.00
2023-04-04T00:08:48.743Z,0.00
2023-04-04T00:09:47.774Z,0.00
2023-04-04T00:10:47.774Z,0.00
2023-04-04T00:11:47.753Z,0.00
2023-04-04T00:12:47.763Z,0.00
2023-04-04T00:13:47.708Z,0.00
2023-04-04T00:14:48.639Z,0.00
2023-04-04T00:15:47.762Z,0.00
2023-04-04T00:16:47.717Z,0.00
2023-04-04T00:17:47.739Z,0.00
2023-04-04T00:18:47.639Z,0.00
2023-04-04T00:19:48.561Z,0.00
2023-04-04T00:20:47.632Z,0.00
2023-04-04T00:21:47.699Z,0.00
2023-04-04T00:22:47.593Z,0.00
2023-04-04T00:23:47.575Z,0.00
2023-04-04T00:24:47.591Z,0.00
2023-04-04T00:25:49.179Z,0.00
2023-04-04T00:26:47.582Z,0.00
2023-04-04T00:27:47.551Z,0.00
2023-04-04T00:28:47.521Z,0.00
2023-04-04T00:29:47.501Z,0.00
2023-04-04T00:30:48.469Z,0.00
2023-04-04T00:31:47.585Z,0.00
2023-04-04T00:32:47.583Z,0.00
2023-04-04T00:33:47.492Z,0.00
2023-04-04T00:34:47.450Z,0.00
2023-04-04T00:35:48.406Z,0.00
2023-04-04T00:36:47.428Z,0.00
2023-04-04T00:37:47.431Z,0.00
2023-04-04T00:38:47.403Z,0.00
2023-04-04T00:39:47.386Z,0.00
2023-04-04T00:40:48.310Z,0.00
2023-04-04T00:41:47.382Z,0.00
2023-04-04T00:42:47.381Z,0.00
2023-04-04T00:43:47.434Z,0.00
2023-04-04T00:44:47.347Z,0.00
2023-04-04T00:45:47.343Z,0.00
2023-04-04T00:46:48.218Z,0.00
2023-04-04T00:47:47.335Z,0.00
2023-04-04T00:48:47.294Z,0.00
2023-04-04T00:49:47.282Z,0.00
2023-04-04T00:50:47.280Z,0.00
2023-04-04T00:51:48.203Z,0.00
2023-04-04T00:52:47.276Z,0.00
2023-04-04T00:53:47.224Z,0.00
2023-04-04T00:54:47.232Z,0.00
2023-04-04T00:55:47.285Z,0.00
2023-04-04T00:56:47.225Z,0.00
2023-04-04T00:57:48.214Z,0.00
2023-04-04T00:58:47.237Z,0.00
2023-04-04T00:59:47.161Z,0.00
2023-04-04T01:00:47.215Z,0.00
2023-04-04T01:01:47.140Z,0.00
2023-04-04T01:02:47.194Z,0.00
2023-04-04T01:03:48.077Z,0.00
2023-04-04T01:04:47.058Z,0.00
2023-04-04T01:05:47.105Z,0.00
2023-04-04T01:06:47.105Z,0.00
2023-04-04T01:07:47.155Z,0.00
2023-04-04T01:08:46.993Z,0.00
2023-04-04T01:09:47.991Z,0.00
2023-04-04T01:10:47.128Z,0.00
2023-04-04T01:11:47.048Z,0.00
2023-04-04T01:12:47.089Z,0.00
2023-04-04T01:13:47.033Z,0.00
2023-04-04T01:14:47.925Z,0.00
2023-04-04T01:15:46.942Z,0.00
2023-04-04T01:16:46.994Z,0.00
2023-04-04T01:17:47.007Z,0.00
2023-04-04T01:18:46.940Z,0.00
2023-04-04T01:19:46.893Z,0.00
2023-04-04T01:20:47.813Z,0.00
2023-04-04T01:21:46.844Z,0.00
2023-04-04T01:22:46.875Z,0.00
2023-04-04T01:23:46.830Z,0.00
2023-04-04T01:24:46.846Z,0.00
2023-04-04T01:25:46.796Z,0.00
2023-04-04T01:26:47.745Z,0.00
2023-04-04T01:27:46.813Z,0.00
2023-04-04T01:28:46.802Z,0.00
2023-04-04T01:29:46.791Z,0.00
2023-04-04T01:30:46.738Z,0.00
2023-04-04T01:31:47.668Z,0.00
2023-04-04T01:32:46.739Z,0.00
2023-04-04T01:33:46.737Z,0.00
2023-04-04T01:34:46.722Z,0.00
2023-04-04T01:35:46.688Z,0.00
2023-04-04T01:36:46.647Z,0.00
2023-04-04T01:37:47.577Z,0.00
2023-04-04T01:38:46.658Z,0.00
2023-04-04T01:39:46.658Z,0.00
2023-04-04T01:40:46.645Z,0.00
2023-04-04T01:41:46.620Z,0.00
2023-04-04T01:42:46.567Z,0.00
2023-04-04T01:43:47.525Z,0.00
2023-04-04T01:44:46.612Z,0.00
2023-04-04T01:45:46.614Z,0.00
2023-04-04T01:46:46.540Z,0.00
2023-04-04T01:47:46.573Z,0.00
2023-04-04T01:48:46.550Z,0.00
2023-04-04T01:49:47.414Z,0.00
2023-04-04T01:50:46.520Z,0.00
2023-04-04T01:51:46.501Z,0.00
2023-04-04T01:52:46.492Z,0.00
2023-04-04T01:53:46.456Z,0.00
2023-04-04T01:54:47.383Z,0.00
2023-04-04T01:55:46.439Z,0.00
2023-04-04T01:56:46.426Z,0.00
2023-04-04T01:57:46.376Z,0.00
2023-04-04T01:58:46.452Z,0.00
2023-04-04T01:59:47.381Z,0.00
2023-04-04T02:00:46.367Z,0.00
2023-04-04T02:01:46.466Z,0.00
2023-04-04T02:02:46.370Z,0.00
2023-04-04T02:03:46.369Z,0.00
2023-04-04T02:04:47.394Z,0.00
2023-04-04T02:05:46.317Z,0.00
2023-04-04T02:06:46.286Z,0.00
2023-04-04T02:07:46.301Z,0.00
2023-04-04T02:08:46.309Z,0.00
2023-04-04T02:09:47.249Z,0.00
2023-04-04T02:10:47.214Z,0.00
2023-04-04T02:11:46.228Z,0.00
2023-04-04T02:12:46.204Z,0.00
2023-04-04T02:13:46.210Z,0.00
2023-04-04T02:14:47.168Z,0.00
2023-04-04T02:15:46.190Z,0.00
2023-04-04T02:16:46.173Z,0.00
2023-04-04T02:17:46.185Z,0.00
2023-04-04T02:18:46.141Z,0.00
2023-04-04T02:19:47.069Z,0.00
2023-04-04T02:20:46.117Z,0.00
2023-04-04T02:21:46.083Z,0.00
2023-04-04T02:22:46.078Z,0.00
2023-04-04T02:23:46.092Z,0.00
2023-04-04T02:24:46.071Z,0.00
2023-04-04T02:25:47.002Z,0.00
2023-04-04T02:26:46.051Z,0.00
2023-04-04T02:27:46.023Z,0.00
2023-04-04T02:28:46.008Z,0.00
2023-04-04T02:29:46.010Z,0.00
2023-04-04T02:30:46.943Z,0.00
2023-04-04T02:31:46.036Z,0.00
2023-04-04T02:32:46.043Z,0.00
2023-04-04T02:33:45.992Z,0.00
2023-04-04T02:34:45.966Z,0.00
2023-04-04T02:35:46.914Z,0.00
2023-04-04T02:36:45.910Z,0.00
2023-04-04T02:37:46.042Z,0.00
2023-04-04T02:38:45.875Z,0.00
2023-04-04T02:39:45.910Z,0.00
2023-04-04T02:40:46.808Z,0.00
2023-04-04T02:41:45.871Z,0.00
2023-04-04T02:42:45.825Z,0.00
2023-04-04T02:43:45.812Z,0.00
2023-04-04T02:44:45.836Z,0.00
2023-04-04T02:45:45.818Z,0.00
2023-04-04T02:46:46.861Z,0.00
2023-04-04T02:47:45.760Z,0.00
2023-04-04T02:48:45.777Z,0.00
2023-04-04T02:49:45.749Z,0.00
2023-04-04T02:50:45.750Z,0.00
2023-04-04T02:51:45.746Z,0.00
2023-04-04T02:52:46.662Z,0.00
2023-04-04T02:53:45.759Z,0.00
2023-04-04T02:54:45.709Z,0.00
2023-04-04T02:55:45.685Z,0.00
2023-04-04T02:56:45.700Z,0.00
2023-04-04T02:57:46.704Z,0.00
2023-04-04T02:58:45.713Z,0.00
2023-04-04T02:59:45.609Z,0.00
2023-04-04T03:00:45.645Z,0.00
2023-04-04T03:01:45.637Z,0.00
2023-04-04T03:02:45.754Z,0.00
2023-04-04T03:03:46.661Z,0.00
2023-04-04T03:04:45.613Z,0.00
2023-04-04T03:05:45.599Z,0.00
2023-04-04T03:06:45.548Z,0.00
2023-04-04T03:07:45.554Z,0.00
2023-04-04T03:08:46.450Z,0.00
2023-04-04T03:09:45.513Z,0.00
2023-04-04T03:10:45.477Z,0.00
2023-04-04T03:11:45.498Z,0.00
2023-04-04T03:12:45.474Z,0.00
2023-04-04T03:13:46.413Z,0.00
2023-04-04T03:14:45.503Z,0.00
2023-04-04T03:15:47.239Z,0.00
2023-04-04T03:16:45.508Z,0.00
2023-04-04T03:17:45.456Z,0.00
2023-04-04T03:18:45.378Z,0.00
2023-04-04T03:19:46.353Z,0.00
2023-04-04T03:20:45.374Z,0.00
2023-04-04T03:21:45.333Z,0.00
2023-04-04T03:22:45.336Z,0.00
2023-04-04T03:23:45.353Z,0.00
2023-04-04T03:24:46.302Z,0.00
2023-04-04T03:25:45.298Z,0.00
2023-04-04T03:26:45.259Z,0.00
2023-04-04T03:27:45.275Z,0.00
2023-04-04T03:28:45.337Z,0.00
2023-04-04T03:29:46.194Z,0.00
2023-04-04T03:30:45.243Z,0.00
2023-04-04T03:31:45.286Z,0.00
2023-04-04T03:32:45.264Z,0.00
2023-04-04T03:33:45.198Z,0.00
2023-04-04T03:34:46.115Z,0.00
2023-04-04T03:35:45.185Z,0.00
2023-04-04T03:36:45.138Z,0.00
2023-04-04T03:37:45.164Z,0.00
2023-04-04T03:38:45.132Z,0.00
2023-04-04T03:39:45.143Z,0.00
2023-04-04T03:40:46.068Z,0.00
2023-04-04T03:41:45.145Z,0.00
2023-04-04T03:42:45.096Z,0.00
2023-04-04T03:43:45.067Z,0.00
2023-04-04T03:44:45.079Z,0.00
2023-04-04T03:45:45.047Z,0.00
2023-04-04T03:46:45.974Z,0.00
2023-04-04T03:47:45.008Z,0.00
2023-04-04T03:48:45.021Z,0.00
2023-04-04T03:49:45.001Z,0.00
2023-04-04T03:50:44.982Z,0.00
2023-04-04T03:51:45.923Z,0.00
2023-04-04T03:52:44.967Z,0.00
2023-04-04T03:53:45.037Z,0.00
2023-04-04T03:54:44.958Z,0.00
2023-04-04T03:55:44.928Z,0.00
2023-04-04T03:56:44.934Z,0.00
2023-04-04T03:57:45.921Z,0.00
2023-04-04T03:58:44.921Z,0.00
2023-04-04T03:59:44.844Z,0.00
2023-04-04T04:00:44.827Z,0.00
2023-04-04T04:01:44.863Z,0.00
2023-04-04T04:02:45.865Z,0.00
2023-04-04T04:03:44.986Z,0.00
2023-04-04T04:04:44.861Z,0.00
2023-04-04T04:05:44.801Z,0.00
2023-04-04T04:06:44.794Z,0.00
2023-04-04T04:07:45.677Z,0.00
2023-04-04T04:08:44.760Z,0.00
2023-04-04T04:09:44.748Z,0.00
2023-04-04T04:10:44.747Z,0.00
2023-04-04T04:11:44.739Z,0.00
2023-04-04T04:12:45.623Z,0.00
2023-04-04T04:13:44.746Z,0.00
2023-04-04T04:14:44.693Z,0.00
2023-04-04T04:15:44.691Z,0.00
2023-04-04T04:16:44.650Z,0.00
2023-04-04T04:17:44.715Z,0.00
2023-04-04T04:18:45.604Z,0.00
2023-04-04T04:19:44.608Z,0.00
2023-04-04T04:20:44.591Z,0.00
2023-04-04T04:21:44.586Z,0.00
2023-04-04T04:22:44.593Z,0.00
2023-04-04T04:23:44.566Z,0.00
2023-04-04T04:24:45.455Z,0.00
2023-04-04T04:25:44.549Z,0.00
2023-04-04T04:26:44.544Z,0.00
2023-04-04T04:27:44.529Z,0.00
2023-04-04T04:28:44.493Z,0.00
2023-04-04T04:29:44.497Z,0.00
2023-04-04T04:30:45.404Z,0.00
2023-04-04T04:31:44.478Z,0.00
2023-04-04T04:32:44.477Z,0.00
2023-04-04T04:33:44.420Z,0.00
2023-04-04T04:34:44.430Z,0.00
2023-04-04T04:35:45.395Z,0.00
2023-04-04T04:36:44.433Z,0.00
2023-04-04T04:37:44.410Z,0.00
2023-04-04T04:38:44.371Z,0.00
2023-04-04T04:39:44.354Z,0.00
2023-04-04T04:40:45.266Z,0.00
2023-04-04T04:41:44.365Z,0.00
2023-04-04T04:42:44.324Z,0.00
2023-04-04T04:43:44.330Z,5.62
2023-04-04T04:44:44.351Z,5.62
2023-04-04T04:45:45.234Z,5.62
2023-04-04T04:46:44.568Z,5.62
2023-04-04T04:47:44.303Z,5.62
2023-04-04T04:48:44.333Z,5.62
2023-04-04T04:49:45.194Z,5.62
2023-04-04T04:50:44.257Z,5.62
2023-04-04T04:51:45.143Z,5.62
2023-04-04T04:52:44.194Z,5.62
2023-04-04T04:53:44.209Z,5.62
2023-04-04T04:54:44.177Z,5.62
2023-04-04T04:55:44.151Z,5.62
2023-04-04T04:56:44.198Z,5.62
2023-04-04T04:57:45.059Z,5.62
2023-04-04T04:58:44.123Z,11.25
2023-04-04T04:59:44.324Z,11.25
2023-04-04T05:00:44.164Z,11.25
2023-04-04T05:01:44.082Z,11.25
2023-04-04T05:02:44.145Z,11.25
2023-04-04T05:03:44.999Z,11.25
2023-04-04T05:04:44.081Z,11.25
2023-04-04T05:05:44.076Z,11.25
2023-04-04T05:06:44.037Z,11.25
2023-04-04T05:07:44.007Z,11.25
2023-04-04T05:08:44.957Z,11.25
2023-04-04T05:09:44.047Z,11.25
2023-04-04T05:10:44.013Z,11.25
2023-04-04T05:11:43.957Z,11.25
2023-04-04T05:12:43.944Z,11.25
2023-04-04T05:13:43.929Z,16.88
2023-04-04T05:14:44.875Z,16.88
2023-04-04T05:15:43.902Z,16.88
2023-04-04T05:16:43.952Z,16.88
2023-04-04T05:17:43.934Z,16.88
2023-04-04T05:18:43.897Z,16.88
2023-04-04T05:19:43.889Z,16.88
2023-04-04T05:20:44.774Z,16.88
2023-04-04T05:21:43.855Z,16.88
2023-04-04T05:22:43.824Z,16.88
2023-04-04T05:23:43.821Z,16.88
2023-04-04T05:24:43.794Z,16.88
2023-04-04T05:25:44.767Z,16.88
2023-04-04T05:26:43.746Z,16.88
2023-04-04T05:27:43.783Z,16.88
2023-04-04T05:28:43.758Z,16.88
2023-04-04T05:29:43.740Z,16.88
2023-04-04T05:30:44.666Z,16.88
2023-04-04T05:31:43.778Z,22.50
2023-04-04T05:32:43.751Z,22.50
2023-04-04T05:33:43.678Z,22.50
2023-04-04T05:34:43.680Z,22.50
2023-04-04T05:35:43.745Z,22.50
2023-04-04T05:36:44.652Z,22.50
2023-04-04T05:37:43.653Z,22.50
2023-04-04T05:38:43.611Z,22.50
2023-04-04T05:39:43.661Z,22.50
2023-04-04T05:40:43.620Z,22.50
2023-04-04T05:41:43.645Z,22.50
2023-04-04T05:42:44.512Z,22.50
2023-04-04T05:43:43.693Z,22.50
2023-04-04T05:44:43.606Z,22.50
2023-04-04T05:45:43.537Z,22.50
2023-04-04T05:46:43.530Z,22.50
2023-04-04T05:47:44.513Z,22.50
2023-04-04T05:48:43.553Z,22.50
2023-04-04T05:49:43.508Z,22.50
2023-04-04T05:50:44.353Z,28.12
2023-04-04T05:51:43.475Z,28.12
2023-04-04T05:52:43.486Z,28.12
2023-04-04T05:53:44.441Z,28.12
2023-04-04T05:54:43.461Z,28.12
2023-04-04T05:55:43.446Z,28.12
2023-04-04T05:56:43.457Z,28.12
2023-04-04T05:57:43.479Z,28.12
2023-04-04T05:58:43.430Z,33.75
2023-04-04T05:59:44.307Z,33.75
2023-04-04T06:00:43.345Z,33.75
2023-04-04T06:01:43.353Z,33.75
2023-04-04T06:02:43.405Z,33.75
2023-04-04T06:03:43.394Z,33.75
2023-04-04T06:04:49.540Z,33.75
2023-04-04T06:05:43.336Z,39.38
2023-04-04T06:06:43.306Z,39.38
2023-04-04T06:07:43.245Z,39.38
2023-04-04T06:08:53.065Z,39.38
2023-04-04T06:09:44.824Z,39.38
2023-04-04T06:10:44.156Z,39.38
2023-04-04T06:11:43.225Z,45.00
2023-04-04T06:12:43.206Z,45.00
2023-04-04T06:13:43.197Z,45.00
2023-04-04T06:14:43.188Z,45.00
2023-04-04T06:15:43.212Z,45.00
2023-04-04T06:16:44.065Z,50.62
2023-04-04T06:17:43.232Z,50.62
2023-04-04T06:18:43.095Z,50.62
2023-04-04T06:19:43.121Z,50.62
2023-04-04T06:20:43.114Z,50.62
2023-04-04T06:21:43.121Z,56.25
2023-04-04T06:22:44.009Z,56.25
2023-04-04T06:23:43.058Z,56.25
2023-04-04T06:24:43.054Z,56.25
2023-04-04T06:25:42.999Z,56.25
2023-04-04T06:26:43.047Z,56.25
2023-04-04T06:27:43.021Z,61.88
2023-04-04T06:28:43.952Z,61.88
2023-04-04T06:29:42.986Z,61.88
2023-04-04T06:30:42.968Z,61.88
2023-04-04T06:31:42.990Z,61.88
2023-04-04T06:32:43.015Z,61.88
2023-04-04T06:33:42.946Z,67.50
2023-04-04T06:34:43.838Z,67.50
2023-04-04T06:35:42.924Z,67.50
2023-04-04T06:36:42.868Z,67.50
2023-04-04T06:37:42.934Z,67.50
2023-04-04T06:38:42.908Z,73.12
2023-04-04T06:39:42.918Z,73.12
2023-04-04T06:40:43.785Z,73.12
2023-04-04T06:41:42.827Z,73.12
2023-04-04T06:42:42.892Z,73.12
2023-04-04T06:43:42.807Z,73.12
2023-04-04T06:44:42.826Z,78.75
2023-04-04T06:45:42.828Z,78.75
2023-04-04T06:46:43.839Z,78.75
2023-04-04T06:47:42.981Z,78.75
2023-04-04T06:48:42.737Z,78.75
2023-04-04T06:49:42.833Z,78.75
2023-04-04T06:50:42.694Z,78.75
2023-04-04T06:51:43.656Z,84.38
2023-04-04T06:52:42.813Z,84.38
2023-04-04T06:53:42.757Z,84.38
2023-04-04T06:54:42.867Z,84.38
2023-04-04T06:55:42.675Z,84.38
2023-04-04T06:56:43.630Z,84.38
2023-04-04T06:57:42.624Z,84.38
2023-04-04T06:58:42.646Z,84.38
2023-04-04T06:59:44.961Z,90.00
2023-04-04T07:00:42.844Z,90.00
2023-04-04T07:01:42.589Z,90.00
2023-04-04T07:02:43.568Z,90.00
2023-04-04T07:03:42.591Z,90.00
2023-04-04T07:04:42.537Z,95.62
2023-04-04T07:05:42.530Z,95.62
2023-04-04T07:06:42.550Z,95.62
2023-04-04T07:07:42.490Z,95.62
2023-04-04T07:08:43.515Z,95.62
2023-04-04T07:09:42.584Z,95.62
2023-04-04T07:10:42.717Z,95.62
2023-04-04T07:11:42.514Z,95.62
2023-04-04T07:12:42.484Z,95.62
2023-04-04T07:13:43.876Z,95.62
2023-04-04T07:14:42.416Z,95.62
2023-04-04T07:15:42.441Z,95.62
2023-04-04T07:16:42.441Z,95.62
2023-04-04T07:17:42.411Z,95.62
2023-04-04T07:18:42.415Z,101.25
2023-04-04T07:19:43.296Z,101.25
2023-04-04T07:20:42.378Z,101.25
2023-04-04T07:21:42.418Z,101.25
2023-04-04T07:22:42.342Z,101.25
2023-04-04T07:23:42.338Z,73.12
2023-04-04T07:24:43.235Z,101.25
2023-04-04T07:25:43.955Z,106.88
2023-04-04T07:26:42.427Z,61.88
2023-04-04T07:27:42.274Z,106.88
2023-04-04T07:28:42.220Z,106.88
2023-04-04T07:29:43.133Z,106.88
2023-04-04T07:30:42.609Z,106.88
2023-04-04T07:31:42.209Z,112.50
2023-04-04T07:32:42.304Z,112.50
2023-04-04T07:33:42.199Z,118.12
2023-04-04T07:34:42.175Z,123.75
2023-04-04T07:35:43.133Z,118.12
2023-04-04T07:36:42.149Z,118.12
2023-04-04T07:37:42.153Z,118.12
2023-04-04T07:38:42.106Z,123.75
2023-04-04T07:39:42.103Z,123.75
2023-04-04T07:40:42.388Z,123.75
2023-04-04T07:41:42.999Z,95.62
2023-04-04T07:42:42.093Z,129.38
2023-04-04T07:43:42.042Z,95.62
2023-04-04T07:44:42.036Z,129.38
2023-04-04T07:45:42.051Z,123.75
2023-04-04T07:46:42.087Z,123.75
2023-04-04T07:47:43.108Z,123.75
2023-04-04T07:48:41.963Z,123.75
2023-04-04T07:49:41.962Z,112.50
2023-04-04T07:50:42.160Z,129.38
2023-04-04T07:51:41.942Z,129.38
2023-04-04T07:52:41.997Z,129.38
2023-04-04T07:53:42.858Z,129.38
2023-04-04T07:54:41.909Z,129.38
2023-04-04T07:55:41.944Z,129.38
2023-04-04T07:56:41.911Z,129.38
2023-04-04T07:57:41.885Z,135.00
2023-04-04T07:58:41.958Z,135.00
2023-04-04T07:59:42.757Z,135.00
2023-04-04T08:00:41.937Z,135.00
2023-04-04T08:01:41.831Z,135.00
2023-04-04T08:02:41.886Z,135.00
2023-04-04T08:03:41.967Z,135.00
2023-04-04T08:04:42.732Z,140.62
2023-04-04T08:05:41.775Z,140.62
2023-04-04T08:06:41.737Z,140.62
2023-04-04T08:07:41.734Z,140.62
2023-04-04T08:08:41.722Z,140.62
2023-04-04T08:09:41.703Z,146.25
2023-04-04T08:10:42.693Z,146.25
2023-04-04T08:11:41.705Z,146.25
2023-04-04T08:12:41.653Z,146.25
2023-04-04T08:13:41.676Z,146.25
2023-04-04T08:14:41.647Z,146.25
2023-04-04T08:15:41.671Z,146.25
2023-04-04T08:16:42.585Z,151.88
2023-04-04T08:17:41.690Z,151.88
2023-04-04T08:18:41.589Z,151.88
2023-04-04T08:19:41.570Z,146.25
2023-04-04T08:20:41.998Z,112.50
2023-04-04T08:21:42.533Z,123.75
2023-04-04T08:22:41.538Z,157.50
2023-04-04T08:23:41.558Z,157.50
2023-04-04T08:24:41.501Z,151.88
2023-04-04T08:25:41.482Z,123.75
2023-04-04T08:26:43.462Z,163.12
2023-04-04T08:27:42.445Z,163.12
2023-04-04T08:29:40.404Z,333984.38
2023-04-04T08:30:40.575Z,333984.38
2023-04-04T08:31:40.372Z,333984.38
2023-04-04T08:32:41.320Z,333984.38
2023-04-04T08:33:47.243Z,333984.38
2023-04-04T08:34:41.855Z,333984.38
2023-04-04T08:35:40.336Z,333984.38
2023-04-04T08:36:40.277Z,333984.38
2023-04-04T08:37:41.212Z,333984.38
2023-04-04T08:38:40.275Z,333984.38
2023-04-04T08:39:40.283Z,333984.38
2023-04-04T08:40:40.669Z,333984.38
2023-04-04T08:41:40.245Z,333984.38
2023-04-04T08:42:40.207Z,333984.38
2023-04-04T08:43:41.175Z,333984.38
2023-04-04T08:44:40.212Z,333984.38
2023-04-04T08:45:40.159Z,333984.38
2023-04-04T08:46:40.256Z,333984.38
2023-04-04T08:47:40.414Z,333984.38
2023-04-04T08:48:41.100Z,333984.38
2023-04-04T08:49:40.212Z,333984.38
2023-04-04T08:50:40.240Z,333984.38
2023-04-04T08:51:40.120Z,333984.38
2023-04-04T08:52:40.135Z,333984.38
2023-04-04T08:53:41.339Z,333984.38
2023-04-04T08:54:40.109Z,333984.38
2023-04-04T08:55:40.082Z,333984.38
2023-04-04T08:56:40.062Z,333984.38
2023-04-04T08:57:40.029Z,333984.38
2023-04-04T08:58:40.109Z,333984.38
2023-04-04T08:59:41.107Z,333984.38
2023-04-04T09:00:40.162Z,333984.38
2023-04-04T09:01:40.165Z,333984.38
2023-04-04T09:02:40.134Z,333984.38
2023-04-04T09:03:40.011Z,333984.38
2023-04-04T09:04:39.951Z,333984.38
2023-04-04T09:05:40.885Z,333984.38
2023-04-04T09:06:39.932Z,333984.38
2023-04-04T09:07:40.069Z,333984.38
2023-04-04T09:08:39.910Z,333984.38
2023-04-04T09:09:39.890Z,333984.38
2023-04-04T09:10:40.998Z,333984.38
2023-04-04T09:11:39.865Z,333984.38
2023-04-04T09:12:39.870Z,333984.38
2023-04-04T09:13:41.400Z,333984.38
2023-04-04T09:14:39.808Z,333984.38
2023-04-04T09:15:39.821Z,333984.38
2023-04-04T09:16:40.972Z,333984.38
2023-04-04T09:17:39.795Z,333984.38
2023-04-04T09:18:39.934Z,333984.38
2023-04-04T09:19:39.765Z,333984.38
2023-04-04T09:20:40.056Z,333984.38
2023-04-04T09:21:39.747Z,333984.38
2023-04-04T09:22:40.681Z,333984.38
2023-04-04T09:23:39.730Z,333984.38
2023-04-04T09:24:39.718Z,333984.38
2023-04-04T09:25:39.826Z,333984.38
2023-04-04T09:26:39.634Z,333984.38
2023-04-04T09:27:40.641Z,333984.38
2023-04-04T09:28:39.619Z,333984.38
2023-04-04T09:29:39.607Z,333984.38
2023-04-04T09:30:39.798Z,333984.38
2023-04-04T09:31:39.585Z,333984.38
2023-04-04T09:32:40.550Z,333984.38
2023-04-04T09:33:39.541Z,333984.38
2023-04-04T09:34:39.637Z,333984.38
2023-04-04T09:35:39.571Z,333984.38
2023-04-04T09:36:39.529Z,333984.38
2023-04-04T09:37:39.499Z,333984.38
2023-04-04T09:38:40.471Z,333984.38
2023-04-04T09:39:39.461Z,333984.38
2023-04-04T09:40:39.742Z,333984.38
2023-04-04T09:41:39.467Z,333984.38
2023-04-04T09:42:39.478Z,333984.38
2023-04-04T09:43:40.439Z,333984.38
2023-04-04T09:44:39.437Z,333984.38
2023-04-04T09:45:39.396Z,333984.38
2023-04-04T09:46:39.429Z,333984.38
2023-04-04T09:47:39.449Z,333984.38
2023-04-04T09:48:40.461Z,333984.38
2023-04-04T09:49:39.352Z,333984.38
2023-04-04T09:50:39.578Z,333984.38
2023-04-04T09:51:39.355Z,333984.38
2023-04-04T09:52:39.327Z,333984.38
2023-04-04T09:53:40.226Z,333984.38
2023-04-04T09:54:48.070Z,333984.38
2023-04-04T09:55:40.873Z,333984.38
2023-04-04T09:56:39.259Z,333984.38
2023-04-04T09:57:39.276Z,333984.38
2023-04-04T09:58:46.280Z,333984.38
2023-04-04T09:59:40.764Z,333984.38
2023-04-04T10:00:39.310Z,333984.38
2023-04-04T10:01:39.231Z,333984.38
2023-04-04T10:02:39.237Z,333984.38
2023-04-04T10:03:40.158Z,333984.38
2023-04-04T10:04:39.194Z,333984.38
2023-04-04T10:05:39.138Z,333984.38
2023-04-04T10:06:39.118Z,333984.38
2023-04-04T10:07:39.174Z,333984.38
2023-04-04T10:08:39.152Z,333984.38
2023-04-04T10:09:40.042Z,333984.38
2023-04-04T10:10:39.220Z,333984.38
2023-04-04T10:11:39.080Z,333984.38
2023-04-04T10:12:39.141Z,333984.38
2023-04-04T10:13:39.060Z,333984.38
2023-04-04T10:14:39.032Z,333984.38
2023-04-04T10:15:39.976Z,333984.38
2023-04-04T10:16:39.030Z,333984.38
2023-04-04T10:17:38.998Z,333984.38
2023-04-04T10:18:38.975Z,333984.38
2023-04-04T10:19:39.032Z,333984.38
2023-04-04T10:20:40.086Z,333984.38
2023-04-04T10:21:38.945Z,333984.38
2023-04-04T10:22:38.919Z,333984.38
2023-04-04T10:23:39.068Z,333984.38
2023-04-04T10:24:38.948Z,333984.38
2023-04-04T10:25:39.813Z,333984.38
2023-04-04T10:26:38.859Z,333984.38
2023-04-04T10:27:38.853Z,333984.38
2023-04-04T10:28:38.876Z,333984.38
2023-04-04T10:29:38.850Z,333984.38
2023-04-04T10:30:38.977Z,333984.38
2023-04-04T10:31:39.741Z,333984.38
2023-04-04T10:32:38.824Z,333984.38
2023-04-04T10:33:38.749Z,333984.38
2023-04-04T10:34:38.807Z,333984.38
2023-04-04T10:35:38.795Z,333984.38
2023-04-04T10:36:38.733Z,333984.38
2023-04-04T10:37:39.650Z,333984.38
2023-04-04T10:38:38.743Z,333984.38
2023-04-04T10:39:38.759Z,333984.38
2023-04-04T10:40:39.099Z,333984.38
2023-04-04T10:41:38.680Z,333984.38
2023-04-04T10:42:38.662Z,333984.38
2023-04-04T10:43:39.588Z,333984.38
2023-04-04T10:44:38.641Z,333984.38
2023-04-04T10:45:39.140Z,333984.38
2023-04-04T10:46:38.619Z,333984.38
2023-04-04T10:47:38.666Z,333984.38
2023-04-04T10:48:38.591Z,333984.38
2023-04-04T10:49:39.536Z,333984.38
2023-04-04T10:50:38.542Z,333984.38
2023-04-04T10:51:48.745Z,333984.38
2023-04-04T10:52:40.117Z,333984.38
2023-04-04T10:53:38.548Z,333984.38
2023-04-04T10:54:39.449Z,333984.38
2023-04-04T10:55:38.735Z,333984.38
2023-04-04T10:56:38.552Z,333984.38
2023-04-04T10:57:38.450Z,333984.38
2023-04-04T10:58:38.470Z,333984.38
2023-04-04T10:59:38.496Z,333984.38
2023-04-04T11:00:39.404Z,333984.38
2023-04-04T11:01:38.443Z,333984.38
2023-04-04T11:02:38.438Z,333984.38
2023-04-04T11:03:38.392Z,333984.38
2023-04-04T11:04:38.489Z,333984.38
2023-04-04T11:05:38.659Z,333984.38
2023-04-04T11:06:39.309Z,333984.38
2023-04-04T11:07:38.339Z,333984.38
2023-04-04T11:08:38.335Z,333984.38
2023-04-04T11:09:39.280Z,333984.38
2023-04-04T11:10:38.311Z,333984.38
2023-04-04T11:11:39.201Z,333984.38
2023-04-04T11:12:38.281Z,333984.38
2023-04-04T11:13:38.344Z,333984.38
2023-04-04T11:14:38.252Z,333984.38
2023-04-04T11:15:38.367Z,333984.38
2023-04-04T11:16:39.196Z,333984.38
2023-04-04T11:17:38.270Z,333984.38
2023-04-04T11:18:38.285Z,333984.38
2023-04-04T11:19:38.207Z,333984.38
2023-04-04T11:20:38.193Z,333984.38
2023-04-04T11:21:39.093Z,333984.38
2023-04-04T11:22:38.183Z,333984.38
2023-04-04T11:23:38.159Z,333984.38
2023-04-04T11:24:38.116Z,333984.38
2023-04-04T11:25:38.328Z,333984.38
2023-04-04T11:26:39.029Z,333984.38
2023-04-04T11:27:38.162Z,333984.38
2023-04-04T11:28:38.177Z,333984.38
2023-04-04T11:29:38.073Z,333984.38
2023-04-04T11:30:38.079Z,333984.38
2023-04-04T11:31:39.002Z,333984.38
2023-04-04T11:32:38.025Z,333984.38
2023-04-04T11:33:38.032Z,333984.38
2023-04-04T11:34:37.994Z,333984.38
2023-04-04T11:35:38.206Z,333984.38
2023-04-04T11:36:37.994Z,333984.38
2023-04-04T11:37:38.924Z,333984.38
2023-04-04T11:39:00.061Z,333984.38
2023-04-04T11:39:37.944Z,333984.38
2023-04-04T11:40:37.922Z,333984.38
2023-04-04T11:41:37.910Z,333984.38
2023-04-04T11:42:38.819Z,333984.38
2023-04-04T11:43:37.878Z,333984.38
2023-04-04T11:44:37.834Z,333984.38
2023-04-04T11:45:38.274Z,333984.38
2023-04-04T11:46:37.882Z,333984.38
2023-04-04T11:47:38.801Z,333984.38
2023-04-04T11:48:37.794Z,333984.38
2023-04-04T11:49:37.802Z,333984.38
2023-04-04T11:50:38.628Z,333984.38
2023-04-04T11:51:37.763Z,333984.38
2023-04-04T11:52:37.791Z,333984.38
2023-04-04T11:53:38.661Z,333984.38
2023-04-04T11:54:37.731Z,333984.38
2023-04-04T11:55:37.936Z,333984.38
2023-04-04T11:56:37.694Z,333984.38
2023-04-04T11:57:37.738Z,333984.38
2023-04-04T11:58:37.657Z,333984.38
2023-04-04T11:59:38.631Z,333984.38
2023-04-04T12:00:37.628Z,333984.38
2023-04-04T12:01:37.662Z,333984.38
2023-04-04T12:02:37.942Z,333984.38
2023-04-04T12:03:37.660Z,333984.38
2023-04-04T12:04:38.840Z,333984.38
2023-04-04T12:05:38.713Z,333984.38
2023-04-04T12:06:37.604Z,333984.38
2023-04-04T12:07:37.688Z,333984.38
2023-04-04T12:08:37.566Z,333984.38
2023-04-04T12:09:37.550Z,333984.38
2023-04-04T12:10:38.459Z,333984.38
2023-04-04T12:11:37.576Z,333984.38
2023-04-04T12:12:37.537Z,333984.38
2023-04-04T12:13:37.509Z,333984.38
2023-04-04T12:14:37.449Z,333984.38
2023-04-04T12:15:37.780Z,333984.38
2023-04-04T12:16:39.409Z,333984.38
2023-04-04T12:17:37.479Z,333984.38
2023-04-04T12:18:37.462Z,333984.38
2023-04-04T12:19:37.667Z,333984.38
2023-04-04T12:20:37.399Z,333984.38
2023-04-04T12:21:38.294Z,333984.38
2023-04-04T12:22:37.386Z,333984.38
2023-04-04T12:23:37.344Z,333984.38
2023-04-04T12:24:37.367Z,333984.38
2023-04-04T12:25:37.578Z,333984.38
2023-04-04T12:26:38.283Z,333984.38
2023-04-04T12:27:37.345Z,333984.38
2023-04-04T12:28:37.288Z,333984.38
2023-04-04T12:29:37.329Z,333984.38